Portada
METAR-TAF:

METAR-TAF

Aeroports :

Aeroport Internacional de Singapur-Changi

Singapur, Singapur

latitud: 01-22N, longitud: 103-59E, altitud: 5 m

Observació

L'informe es va fer fa 33 minuts, a les 09:00 UTC
Vent 7 kt del Sud, variant entre Sud/Sud-Est i Oest
Temperatura 32°C
Humitat 63%
Pressió 1008 hPa
Visibilitat 10 km o més
Escasses núvols a una alçada de 1800 ft, Cumulonimbus.
Cel ennuvolat a una alçada de 30000 ft

METAR: WSSS 230900Z 18007KT 150V280 9999 FEW018CB BKN300 32/24 Q1008 NOSIG

Hora: 17:33 (09:33 UTC)

Pronòstic

L'informe es va fer fa 1 hora i 33 minuts, a les 08:00 UTC
Pronòstic vàlid del 23 a les 08 UTC al 24 a les 12 UTC
Vent 8 kt del Sud/Sud-Est
Visibilitat 10 km o més
Escasses núvols a una alçada de 1500 ft
Núvols disperses a una alçada de 2000 ft

TAF: WSSS 230800Z 2308/2412 15008KT 9999 FEW015 SCT020

Observacions i pronòstics meteorològics de més de 4000 aeroports (METAR i TAF).

Les estacions disponibles són els punts grocs i vermells al mapa.

Posi el ratolí al punt desitjat per veure el nom de l'estació.

Feu clic per veure les observacions i els pronòstics meteorològics.

Per canviar el mapa: feu clic els botons verds amb una creu de color negre per apropar; al botó verd amb un guió per allunyar la imatge; o en les fletxes verdes per a mapes adjacents.


METAR-TAF: